createdAt,value
2023-02-18T00:00:59.336Z,18.73
2023-02-18T00:03:28.521Z,13.93
2023-02-18T00:05:56.577Z,17.40
2023-02-18T00:08:26.090Z,17.27
2023-02-18T00:10:54.120Z,18.67
2023-02-18T00:13:22.036Z,16.70
2023-02-18T00:15:50.049Z,16.17
2023-02-18T00:18:18.079Z,18.07
2023-02-18T00:20:46.002Z,15.47
2023-02-18T00:23:14.026Z,16.83
2023-02-18T00:25:43.350Z,16.27
2023-02-18T00:28:11.324Z,19.57
2023-02-18T00:30:41.680Z,17.33
2023-02-18T00:33:09.947Z,16.47
2023-02-18T00:35:37.970Z,18.43
2023-02-18T00:38:05.993Z,19.57
2023-02-18T00:40:33.967Z,20.33
2023-02-18T00:43:03.253Z,18.10
2023-02-18T00:45:32.708Z,19.33
2023-02-18T00:48:00.802Z,18.97
2023-02-18T00:50:28.860Z,20.10
2023-02-18T00:52:59.051Z,20.70
2023-02-18T00:55:26.980Z,18.10
2023-02-18T00:57:54.960Z,21.53
2023-02-18T01:00:25.466Z,19.53
2023-02-18T01:02:54.125Z,20.10
2023-02-18T01:05:23.945Z,19.90
2023-02-18T01:07:51.972Z,19.10
2023-02-18T01:10:19.899Z,19.53
2023-02-18T01:12:47.922Z,21.57
2023-02-18T01:15:17.520Z,18.63
2023-02-18T01:17:47.227Z,20.97
2023-02-18T01:20:15.972Z,20.80
2023-02-18T01:22:44.018Z,21.73
2023-02-18T01:25:13.173Z,21.40
2023-02-18T01:27:41.886Z,20.87
2023-02-18T01:30:13.159Z,18.63
2023-02-18T01:32:41.105Z,22.47
2023-02-18T01:35:15.196Z,19.23
2023-02-18T01:37:43.716Z,19.57
2023-02-18T01:40:14.107Z,18.40
2023-02-18T01:42:42.113Z,21.27
2023-02-18T01:45:44.957Z,16.10
2023-02-18T01:48:18.233Z,16.37
2023-02-18T01:50:50.786Z,17.83
2023-02-18T01:53:23.024Z,14.83
2023-02-18T01:55:51.055Z,15.37
2023-02-18T01:58:19.750Z,18.27
2023-02-18T02:00:47.739Z,15.87
2023-02-18T02:03:16.115Z,13.73
2023-02-18T02:05:45.180Z,13.80
2023-02-18T02:08:18.670Z,13.93
2023-02-18T02:11:04.097Z,11.57
2023-02-18T02:13:43.595Z,12.43
2023-02-18T02:16:17.340Z,16.13
2023-02-18T02:18:58.323Z,12.07
2023-02-18T02:21:59.289Z,15.53
2023-02-18T02:25:08.825Z,11.30
2023-02-18T02:27:59.375Z,12.53
2023-02-18T02:31:10.772Z,10.97
2023-02-18T02:33:57.698Z,12.83
2023-02-18T02:36:32.817Z,12.03
2023-02-18T02:39:07.983Z,13.90
2023-02-18T02:41:47.935Z,13.17
2023-02-18T02:44:22.841Z,12.13
2023-02-18T02:46:55.098Z,14.20
2023-02-18T02:49:38.112Z,12.67
2023-02-18T02:52:14.708Z,11.23
2023-02-18T02:54:42.919Z,11.40
2023-02-18T02:57:45.107Z,11.60
2023-02-18T03:00:20.538Z,14.03
2023-02-18T03:03:03.700Z,10.07
2023-02-18T03:05:47.919Z,10.60
2023-02-18T03:08:31.429Z,12.40
2023-02-18T03:11:04.949Z,12.27
2023-02-18T03:13:45.884Z,12.40
2023-02-18T03:16:27.836Z,12.90
2023-02-18T03:19:04.338Z,12.33
2023-02-18T03:21:35.751Z,13.43
2023-02-18T03:24:10.105Z,14.20
2023-02-18T03:26:43.849Z,14.90
2023-02-18T03:29:15.516Z,16.30
2023-02-18T03:31:45.091Z,13.70
2023-02-18T03:34:18.259Z,13.40
2023-02-18T03:36:46.796Z,17.10
2023-02-18T03:39:19.627Z,14.07
2023-02-18T03:41:48.830Z,17.40
2023-02-18T03:44:16.950Z,14.57
2023-02-18T03:46:46.515Z,13.90
2023-02-18T03:49:16.064Z,16.93
2023-02-18T03:51:44.913Z,16.93
2023-02-18T03:54:14.290Z,15.60
2023-02-18T03:56:44.919Z,17.77
2023-02-18T03:59:13.814Z,15.47
2023-02-18T04:01:41.844Z,15.00
2023-02-18T04:04:10.187Z,16.83
2023-02-18T04:06:38.262Z,17.67
2023-02-18T04:09:09.132Z,15.90
2023-02-18T04:11:38.249Z,17.43
2023-02-18T04:14:08.245Z,16.60
2023-02-18T04:16:36.188Z,15.77
2023-02-18T04:19:04.165Z,17.30
2023-02-18T04:21:32.076Z,16.70
2023-02-18T04:24:00.136Z,15.43
2023-02-18T04:26:28.547Z,13.40
2023-02-18T04:28:56.510Z,14.17
2023-02-18T04:31:26.071Z,14.90
2023-02-18T04:33:54.139Z,14.63
2023-02-18T04:36:22.127Z,13.87
2023-02-18T04:38:50.171Z,12.40
2023-02-18T04:41:18.259Z,11.67
2023-02-18T04:43:46.219Z,11.60
2023-02-18T04:46:14.244Z,12.37
2023-02-18T04:48:43.826Z,10.43
2023-02-18T04:51:11.859Z,11.40
2023-02-18T04:53:39.825Z,9.37
2023-02-18T04:56:08.423Z,9.03
2023-02-18T04:58:36.556Z,10.43
2023-02-18T05:01:06.050Z,10.37
2023-02-18T05:03:34.208Z,10.50
2023-02-18T05:06:03.712Z,8.63
2023-02-18T05:08:31.717Z,12.33
2023-02-18T05:10:59.830Z,9.60
2023-02-18T05:13:27.818Z,10.60
2023-02-18T05:15:55.780Z,10.10
2023-02-18T05:18:23.710Z,10.27
2023-02-18T05:20:51.801Z,10.80
2023-02-18T05:23:21.492Z,7.47
2023-02-18T05:25:49.512Z,9.77
2023-02-18T05:28:17.800Z,7.47
2023-02-18T05:30:45.748Z,5.73
2023-02-18T05:33:13.699Z,6.67
2023-02-18T05:35:41.810Z,5.27
2023-02-18T05:38:10.292Z,5.70
2023-02-18T05:40:40.169Z,4.20
2023-02-18T05:43:08.188Z,3.73
2023-02-18T05:45:36.452Z,3.27
2023-02-18T05:48:04.618Z,5.10
2023-02-18T05:50:32.599Z,4.27
2023-02-18T05:53:00.763Z,4.23
2023-02-18T05:55:28.789Z,3.20
2023-02-18T05:57:59.241Z,2.07
2023-02-18T06:00:27.283Z,2.30
2023-02-18T06:02:55.325Z,2.67
2023-02-18T06:05:23.214Z,2.23
2023-02-18T06:07:51.214Z,2.43
2023-02-18T06:10:19.501Z,2.07
2023-02-18T06:12:47.543Z,2.80
2023-02-18T06:15:17.073Z,3.73
2023-02-18T06:17:45.015Z,2.20
2023-02-18T06:20:13.813Z,2.27
2023-02-18T06:22:41.737Z,3.13
2023-02-18T06:25:10.184Z,2.70
2023-02-18T06:27:38.115Z,2.93
2023-02-18T06:30:07.377Z,4.77
2023-02-18T06:32:36.755Z,3.20
2023-02-18T06:35:04.899Z,2.97
2023-02-18T06:37:33.394Z,3.07
2023-02-18T06:40:03.609Z,4.27
2023-02-18T06:42:31.665Z,4.40
2023-02-18T06:44:59.658Z,3.83
2023-02-18T06:47:27.951Z,3.83
2023-02-18T06:49:57.338Z,3.50
2023-02-18T06:52:25.263Z,3.93
2023-02-18T06:54:53.359Z,5.27
2023-02-18T06:57:21.376Z,5.13
2023-02-18T06:59:49.325Z,4.57
2023-02-18T07:02:17.267Z,5.53
2023-02-18T07:04:45.638Z,5.57
2023-02-18T07:07:15.320Z,4.70
2023-02-18T07:09:43.341Z,5.97
2023-02-18T07:12:11.306Z,4.53
2023-02-18T07:14:39.563Z,5.23
2023-02-18T07:17:07.629Z,6.67
2023-02-18T07:19:35.624Z,3.33
2023-02-18T07:22:03.606Z,2.97
2023-02-18T07:24:33.096Z,3.23
2023-02-18T07:27:01.070Z,2.10
2023-02-18T07:29:29.106Z,3.60
2023-02-18T07:31:57.420Z,3.57
2023-02-18T07:34:25.637Z,3.07
2023-02-18T07:36:53.748Z,2.13
2023-02-18T07:39:21.732Z,2.70
2023-02-18T07:41:51.145Z,2.43
2023-02-18T07:44:19.272Z,2.13
2023-02-18T07:46:48.447Z,3.40
2023-02-18T07:49:16.612Z,1.77
2023-02-18T07:51:44.571Z,2.10
2023-02-18T07:54:12.516Z,2.83
2023-02-18T07:56:40.552Z,2.23
2023-02-18T07:59:10.197Z,2.77
2023-02-18T08:01:38.176Z,1.67
2023-02-18T08:04:06.570Z,2.50
2023-02-18T08:06:37.484Z,2.87
2023-02-18T08:09:06.515Z,4.73
2023-02-18T08:11:35.659Z,4.00
2023-02-18T08:14:03.636Z,2.03
2023-02-18T08:16:33.500Z,3.70
2023-02-18T08:19:03.561Z,3.80
2023-02-18T08:21:32.488Z,3.63
2023-02-18T08:24:01.119Z,4.17
2023-02-18T08:26:31.559Z,1.80
2023-02-18T08:28:59.892Z,2.70
2023-02-18T08:31:30.097Z,2.63
2023-02-18T08:34:01.024Z,5.53
2023-02-18T08:36:29.673Z,4.43
2023-02-18T08:39:00.719Z,4.27
2023-02-18T08:41:28.963Z,4.37
2023-02-18T08:43:57.188Z,4.73
2023-02-18T08:46:33.915Z,7.33
2023-02-18T08:49:05.018Z,8.63
2023-02-18T08:51:33.579Z,8.17
2023-02-18T08:54:01.830Z,9.43
2023-02-18T08:56:30.229Z,7.30
2023-02-18T08:58:58.575Z,6.33
2023-02-18T09:01:27.008Z,6.83
2023-02-18T09:03:58.238Z,10.33
2023-02-18T09:06:28.620Z,7.60
2023-02-18T09:08:57.387Z,8.03
2023-02-18T09:11:25.763Z,9.30
2023-02-18T09:13:54.423Z,10.83
2023-02-18T09:16:26.157Z,8.93
2023-02-18T09:18:54.600Z,7.57
2023-02-18T09:21:24.205Z,7.97
2023-02-18T09:23:54.453Z,7.87
2023-02-18T09:26:25.182Z,6.70
2023-02-18T09:28:55.573Z,8.10
2023-02-18T09:31:26.366Z,9.97
2023-02-18T09:33:56.715Z,11.73
2023-02-18T09:36:25.630Z,12.67
2023-02-18T09:38:56.258Z,11.63
2023-02-18T09:41:39.273Z,8.13
2023-02-18T09:44:13.842Z,12.37
2023-02-18T09:46:50.268Z,11.17
2023-02-18T09:49:22.166Z,7.70
2023-02-18T09:51:50.882Z,12.50
2023-02-18T09:54:22.109Z,10.77
2023-02-18T09:56:52.180Z,8.33
2023-02-18T09:59:25.249Z,13.47
2023-02-18T10:01:57.258Z,9.07
2023-02-18T10:04:30.528Z,10.43
2023-02-18T10:07:00.437Z,11.97
2023-02-18T10:09:34.973Z,9.87
2023-02-18T10:12:14.768Z,8.53
2023-02-18T10:14:47.705Z,10.27
2023-02-18T10:17:18.543Z,9.63
2023-02-18T10:19:50.158Z,7.57
2023-02-18T10:22:19.768Z,13.13
2023-02-18T10:24:53.498Z,9.53
2023-02-18T10:27:27.088Z,8.03
2023-02-18T10:30:00.352Z,7.67
2023-02-18T10:32:34.363Z,11.37
2023-02-18T10:35:15.630Z,9.17
2023-02-18T10:37:58.662Z,12.83
2023-02-18T10:40:36.944Z,10.30
2023-02-18T10:43:21.255Z,7.27
2023-02-18T10:45:57.838Z,8.73
2023-02-18T10:48:47.402Z,14.57
2023-02-18T10:51:20.779Z,9.63
2023-02-18T10:53:53.186Z,10.20
2023-02-18T10:56:38.832Z,13.27
2023-02-18T10:59:14.497Z,15.80
2023-02-18T11:01:45.186Z,11.77
2023-02-18T11:04:26.708Z,9.77
2023-02-18T11:06:56.229Z,9.50
2023-02-18T11:09:37.996Z,13.23
2023-02-18T11:12:17.159Z,10.13
2023-02-18T11:14:47.902Z,13.40
2023-02-18T11:17:27.342Z,11.30
2023-02-18T11:19:58.748Z,10.57
2023-02-18T11:22:31.053Z,9.80
2023-02-18T11:25:01.733Z,10.23
2023-02-18T11:27:45.736Z,12.60
2023-02-18T11:30:25.466Z,11.20
2023-02-18T11:33:01.086Z,8.73
2023-02-18T11:35:33.354Z,5.97
2023-02-18T11:38:05.443Z,11.03
2023-02-18T11:40:35.814Z,11.47
2023-02-18T11:43:13.765Z,8.43
2023-02-18T11:45:43.155Z,10.17
2023-02-18T11:48:17.904Z,8.23
2023-02-18T11:50:51.935Z,7.73
2023-02-18T11:53:32.933Z,8.60
2023-02-18T11:56:05.788Z,6.97
2023-02-18T11:58:40.248Z,6.67
2023-02-18T12:01:20.644Z,8.10
2023-02-18T12:03:55.959Z,8.80
2023-02-18T12:06:29.973Z,11.13
2023-02-18T12:09:08.678Z,6.63
2023-02-18T12:11:41.831Z,7.23
2023-02-18T12:14:18.828Z,8.20
2023-02-18T12:16:58.600Z,7.57
2023-02-18T12:19:45.009Z,8.30
2023-02-18T12:22:19.788Z,7.17
2023-02-18T12:25:03.337Z,6.90
2023-02-18T12:27:42.313Z,6.80
2023-02-18T12:30:34.042Z,4.10
2023-02-18T12:33:13.563Z,9.33
2023-02-18T12:35:58.189Z,4.63
2023-02-18T12:38:51.479Z,6.93
2023-02-18T12:41:31.605Z,5.37
2023-02-18T12:44:14.406Z,6.47
2023-02-18T12:47:10.774Z,6.50
2023-02-18T12:50:19.688Z,6.67
2023-02-18T12:53:00.594Z,7.57
2023-02-18T12:55:55.964Z,6.20
2023-02-18T12:58:34.062Z,8.13
2023-02-18T13:01:30.775Z,5.27
2023-02-18T13:04:19.451Z,6.37
2023-02-18T13:07:30.748Z,6.37
2023-02-18T13:10:18.751Z,6.27
2023-02-18T13:12:52.229Z,6.47
2023-02-18T13:15:24.684Z,8.87
2023-02-18T13:17:57.812Z,8.77
2023-02-18T13:20:37.895Z,5.63
2023-02-18T13:23:07.320Z,7.17
2023-02-18T13:25:40.228Z,7.63
2023-02-18T13:28:18.211Z,7.90
2023-02-18T13:30:51.333Z,7.03
2023-02-18T13:33:24.646Z,10.07
2023-02-18T13:36:03.263Z,10.00
2023-02-18T13:39:05.983Z,8.87
2023-02-18T13:41:37.395Z,9.87
2023-02-18T13:44:10.257Z,9.67
2023-02-18T13:46:54.323Z,8.60
2023-02-18T13:49:24.644Z,11.07
2023-02-18T13:51:56.784Z,11.13
2023-02-18T13:54:29.511Z,10.87
2023-02-18T13:57:03.713Z,11.40
2023-02-18T13:59:36.689Z,12.20
2023-02-18T14:02:33.507Z,12.13
2023-02-18T14:05:21.350Z,10.70
2023-02-18T14:07:53.344Z,15.87
2023-02-18T14:10:32.805Z,14.10
2023-02-18T14:13:25.772Z,15.40
2023-02-18T14:16:01.342Z,18.53
2023-02-18T14:18:55.429Z,14.03
2023-02-18T14:21:37.775Z,10.80
2023-02-18T14:24:08.568Z,17.90
2023-02-18T14:26:41.703Z,14.27
2023-02-18T14:29:17.163Z,17.00
2023-02-18T14:31:52.800Z,12.57
2023-02-18T14:34:54.330Z,20.53
2023-02-18T14:37:58.556Z,13.77
2023-02-18T14:40:54.681Z,15.40
2023-02-18T14:43:40.071Z,18.23
2023-02-18T14:46:20.968Z,14.90
2023-02-18T14:49:09.914Z,18.07
2023-02-18T14:51:38.455Z,21.43
2023-02-18T14:54:08.505Z,15.07
2023-02-18T14:56:49.713Z,15.03
2023-02-18T14:59:18.935Z,14.43
2023-02-18T15:01:48.778Z,15.27
2023-02-18T15:04:17.373Z,18.90
2023-02-18T15:06:45.422Z,17.00
2023-02-18T15:09:20.892Z,18.53
2023-02-18T15:11:54.915Z,16.80
2023-02-18T15:14:26.783Z,13.47
2023-02-18T15:16:55.071Z,17.30
2023-02-18T15:19:27.323Z,13.83
2023-02-18T15:21:57.340Z,16.17
2023-02-18T15:24:27.705Z,13.13
2023-02-18T15:26:58.792Z,13.97
2023-02-18T15:29:28.927Z,15.63
2023-02-18T15:31:58.981Z,13.77
2023-02-18T15:34:38.202Z,13.47
2023-02-18T15:37:08.033Z,12.13
2023-02-18T15:39:38.614Z,11.00
2023-02-18T15:42:15.885Z,13.03
2023-02-18T15:44:49.281Z,11.90
2023-02-18T15:47:19.274Z,15.90
2023-02-18T15:49:50.629Z,14.37
2023-02-18T15:52:25.591Z,17.67
2023-02-18T15:54:54.146Z,15.47
2023-02-18T15:57:29.180Z,15.80
2023-02-18T16:00:04.416Z,15.30
2023-02-18T16:02:34.474Z,14.93
2023-02-18T16:05:05.417Z,14.57
2023-02-18T16:07:39.175Z,16.93
2023-02-18T16:10:17.711Z,17.37
2023-02-18T16:12:51.395Z,14.50
2023-02-18T16:15:27.054Z,14.40
2023-02-18T16:17:56.020Z,15.27
2023-02-18T16:20:31.578Z,13.27
2023-02-18T16:23:04.142Z,14.70
2023-02-18T16:25:44.595Z,15.73
2023-02-18T16:28:17.540Z,17.43
2023-02-18T16:30:46.515Z,16.47
2023-02-18T16:33:14.752Z,16.33
2023-02-18T16:35:50.004Z,13.73
2023-02-18T16:38:20.657Z,13.77
2023-02-18T16:40:49.513Z,13.40
2023-02-18T16:43:21.006Z,12.37
2023-02-18T16:45:51.453Z,14.00
2023-02-18T16:48:24.019Z,13.00
2023-02-18T16:50:52.701Z,12.53
2023-02-18T16:53:21.281Z,12.40
2023-02-18T16:55:50.828Z,17.23
2023-02-18T16:58:20.488Z,14.43
2023-02-18T17:00:50.983Z,15.97
2023-02-18T17:03:19.635Z,15.60
2023-02-18T17:05:47.640Z,16.37
2023-02-18T17:08:19.321Z,15.13
2023-02-18T17:10:48.856Z,17.07
2023-02-18T17:13:17.892Z,14.53
2023-02-18T17:15:50.919Z,13.03
2023-02-18T17:18:19.685Z,13.20
2023-02-18T17:20:49.966Z,14.17
2023-02-18T17:23:21.191Z,11.37
2023-02-18T17:25:50.274Z,11.03
2023-02-18T17:28:19.281Z,12.87
2023-02-18T17:30:56.388Z,16.23
2023-02-18T17:33:26.201Z,13.87
2023-02-18T17:35:54.809Z,11.53
2023-02-18T17:38:22.853Z,11.13
2023-02-18T17:40:51.080Z,12.80
2023-02-18T17:43:19.943Z,19.07
2023-02-18T17:45:52.230Z,12.73
2023-02-18T17:48:20.816Z,13.43
2023-02-18T17:50:48.963Z,17.90
2023-02-18T17:53:18.264Z,13.33
2023-02-18T17:55:48.039Z,12.83
2023-02-18T17:58:17.342Z,11.67
2023-02-18T18:00:48.384Z,11.97
2023-02-18T18:03:18.552Z,9.43
2023-02-18T18:05:49.311Z,13.03
2023-02-18T18:08:17.452Z,14.00
2023-02-18T18:10:50.308Z,11.47
2023-02-18T18:13:22.384Z,12.93
2023-02-18T18:15:51.118Z,11.30
2023-02-18T18:18:20.951Z,11.67
2023-02-18T18:20:52.222Z,8.17
2023-02-18T18:23:22.165Z,8.77
2023-02-18T18:25:51.745Z,11.67
2023-02-18T18:28:20.097Z,9.27
2023-02-18T18:30:49.785Z,10.90
2023-02-18T18:33:19.684Z,8.60
2023-02-18T18:35:52.018Z,11.53
2023-02-18T18:38:21.781Z,9.93
2023-02-18T18:40:51.062Z,8.97
2023-02-18T18:43:21.747Z,11.93
2023-02-18T18:45:50.880Z,11.33
2023-02-18T18:48:20.196Z,22.77
2023-02-18T18:50:50.918Z,11.73
2023-02-18T18:53:20.849Z,11.43
2023-02-18T18:55:49.831Z,10.13
2023-02-18T18:58:23.063Z,8.63
2023-02-18T19:00:53.887Z,8.97
2023-02-18T19:03:23.795Z,10.77
2023-02-18T19:05:53.528Z,10.87
2023-02-18T19:08:26.373Z,11.83
2023-02-18T19:10:56.518Z,11.80
2023-02-18T19:13:27.068Z,14.27
2023-02-18T19:16:04.214Z,27.87
2023-02-18T19:18:33.701Z,13.13
2023-02-18T19:21:04.835Z,13.20
2023-02-18T19:23:33.078Z,15.93
2023-02-18T19:26:01.298Z,15.13
2023-02-18T19:28:29.819Z,16.50
2023-02-18T19:30:57.889Z,16.97
2023-02-18T19:33:26.009Z,15.00
2023-02-18T19:35:54.083Z,19.03
2023-02-18T19:38:23.386Z,15.80
2023-02-18T19:40:51.388Z,16.57
2023-02-18T19:43:19.501Z,13.83
2023-02-18T19:45:48.298Z,14.37
2023-02-18T19:48:16.920Z,20.57
2023-02-18T19:50:45.308Z,12.50
2023-02-18T19:53:13.270Z,15.20
2023-02-18T19:55:42.688Z,15.40
2023-02-18T19:58:10.667Z,16.97
2023-02-18T20:00:40.449Z,16.77
2023-02-18T20:03:08.435Z,15.10
2023-02-18T20:05:38.842Z,14.50
2023-02-18T20:08:06.916Z,15.97
2023-02-18T20:10:35.213Z,15.67
2023-02-18T20:13:05.873Z,15.87
2023-02-18T20:15:33.912Z,13.67
2023-02-18T20:18:01.789Z,17.40
2023-02-18T20:20:29.933Z,14.50
2023-02-18T20:22:57.898Z,15.13
2023-02-18T20:25:26.741Z,12.87
2023-02-18T20:28:01.248Z,15.03
2023-02-18T20:30:31.380Z,13.70
2023-02-18T20:32:59.395Z,14.73
2023-02-18T20:35:27.390Z,17.30
2023-02-18T20:37:55.765Z,13.93
2023-02-18T20:40:24.051Z,16.20
2023-02-18T20:42:52.022Z,17.23
2023-02-18T20:45:20.089Z,13.83
2023-02-18T20:47:49.518Z,17.87
2023-02-18T20:50:17.567Z,17.97
2023-02-18T20:52:45.557Z,19.17
2023-02-18T20:55:13.492Z,13.13
2023-02-18T20:57:41.388Z,14.90
2023-02-18T21:00:10.549Z,14.83
2023-02-18T21:02:38.594Z,17.00
2023-02-18T21:05:09.278Z,17.23
2023-02-18T21:07:37.365Z,16.40
2023-02-18T21:10:06.701Z,17.83
2023-02-18T21:12:34.718Z,15.70
2023-02-18T21:15:02.780Z,18.07
2023-02-18T21:17:30.948Z,15.53
2023-02-18T21:20:00.910Z,18.30
2023-02-18T21:22:30.483Z,16.93
2023-02-18T21:24:59.271Z,19.87
2023-02-18T21:27:27.337Z,20.20
2023-02-18T21:29:55.337Z,15.77
2023-02-18T21:32:23.516Z,19.17
2023-02-18T21:34:51.712Z,17.13
2023-02-18T21:37:20.105Z,16.10
2023-02-18T21:39:49.715Z,17.73
2023-02-18T21:42:17.712Z,18.77
2023-02-18T21:44:45.749Z,16.07
2023-02-18T21:47:13.620Z,17.20
2023-02-18T21:49:41.533Z,21.73
2023-02-18T21:52:09.649Z,14.87
2023-02-18T21:54:40.427Z,17.37
2023-02-18T21:57:13.624Z,18.07
2023-02-18T21:59:42.410Z,17.57
2023-02-18T22:02:17.380Z,16.40
2023-02-18T22:04:46.331Z,18.40
2023-02-18T22:07:15.079Z,16.73
2023-02-18T22:09:43.162Z,15.73
2023-02-18T22:12:13.162Z,16.67
2023-02-18T22:14:41.352Z,18.57
2023-02-18T22:17:10.121Z,17.90
2023-02-18T22:19:38.397Z,17.30
2023-02-18T22:22:06.839Z,17.63
2023-02-18T22:24:35.249Z,21.53
2023-02-18T22:27:03.542Z,16.57
2023-02-18T22:29:33.588Z,18.60
2023-02-18T22:32:01.750Z,14.63
2023-02-18T22:34:29.899Z,15.50
2023-02-18T22:36:57.926Z,14.77
2023-02-18T22:39:26.607Z,16.73
2023-02-18T22:41:54.610Z,12.13
2023-02-18T22:44:23.170Z,15.67
2023-02-18T22:46:55.482Z,14.53
2023-02-18T22:49:23.821Z,15.07
2023-02-18T22:51:53.458Z,12.30
2023-02-18T22:54:22.455Z,13.43
2023-02-18T22:56:50.744Z,13.67
2023-02-18T22:59:19.635Z,12.17
2023-02-18T23:01:50.596Z,12.20
2023-02-18T23:04:21.342Z,12.80
2023-02-18T23:06:50.391Z,13.17
2023-02-18T23:09:20.245Z,14.70
2023-02-18T23:11:51.749Z,13.23
2023-02-18T23:14:21.193Z,13.33
2023-02-18T23:17:08.119Z,12.43
2023-02-18T23:19:38.534Z,14.40
2023-02-18T23:22:06.928Z,13.80
2023-02-18T23:24:35.404Z,15.03
2023-02-18T23:27:04.466Z,17.50
2023-02-18T23:29:32.607Z,16.53
2023-02-18T23:32:00.541Z,13.50
2023-02-18T23:34:28.610Z,15.20
2023-02-18T23:36:58.345Z,16.33
2023-02-18T23:39:27.104Z,12.67
2023-02-18T23:41:55.175Z,15.80
2023-02-18T23:44:25.403Z,15.63
2023-02-18T23:46:53.793Z,16.43
2023-02-18T23:49:24.119Z,14.53
2023-02-18T23:51:53.631Z,15.30
2023-02-18T23:54:23.727Z,15.43
2023-02-18T23:56:51.663Z,17.50
2023-02-18T23:59:20.020Z,16.17
